Time;durP1;ratioP1;P1;durP2;ratioP2;P2;SDS_P1;SDS_P2;PMS_P1;PMS_P2;Temp;Humidity;BMP_temperature;BMP_pressure;BME280_temperature;BME280_humidity;BME280_pressure;Samples;Min_cycle;Max_cycle;Signal;HPM_P1;HPM_P2
2023/10/10 00:02:18;;;;;;;41.70;25.43;;;13.00;99.90;;;;;;5030603;28;20750;-55
2023/10/10 00:04:48;;;;;;;39.37;23.70;;;13.10;99.90;;;;;;5030490;28;20355;-53
2023/10/10 00:07:16;;;;;;;44.83;24.93;;;13.10;99.90;;;;;;5037601;28;20544;-54
2023/10/10 00:09:47;;;;;;;40.77;24.03;;;13.00;99.90;;;;;;5034005;28;20264;-54
2023/10/10 00:12:19;;;;;;;39.03;23.90;;;13.00;99.90;;;;;;5035463;28;20217;-53
2023/10/10 00:14:50;;;;;;;37.13;24.07;;;13.00;99.90;;;;;;5034127;28;20222;-54
2023/10/10 00:17:20;;;;;;;41.27;23.90;;;13.00;99.90;;;;;;5036546;28;20231;-55
2023/10/10 00:19:52;;;;;;;35.37;21.87;;;12.90;99.90;;;;;;5035356;28;20220;-55
2023/10/10 00:22:27;;;;;;;39.03;23.13;;;12.90;99.90;;;;;;5031851;28;20186;-53
2023/10/10 00:24:57;;;;;;;40.00;22.60;;;12.90;99.90;;;;;;5065006;28;20193;-54
2023/10/10 00:27:30;;;;;;;42.10;23.63;;;12.90;99.90;;;;;;5039045;28;20222;-54
2023/10/10 00:30:12;;;;;;;34.33;21.80;;;12.90;99.90;;;;;;5033377;28;20217;-54
2023/10/10 00:32:43;;;;;;;35.00;21.53;;;12.90;99.90;;;;;;5032479;28;20304;-54
2023/10/10 00:35:11;;;;;;;36.20;21.67;;;12.90;99.90;;;;;;5033734;28;20226;-53
2023/10/10 00:37:40;;;;;;;37.93;21.37;;;12.90;99.90;;;;;;5029384;28;20218;-54
2023/10/10 00:40:15;;;;;;;38.53;22.20;;;12.90;99.90;;;;;;5030621;28;20187;-55
2023/10/10 00:42:43;;;;;;;27.63;19.80;;;12.90;99.90;;;;;;5028708;28;20283;-54
2023/10/10 00:45:14;;;;;;;27.10;19.20;;;12.90;99.90;;;;;;5032739;28;20230;-54
2023/10/10 00:47:44;;;;;;;26.03;19.27;;;12.90;99.90;;;;;;5075558;28;20220;-56
2023/10/10 00:50:18;;;;;;;24.70;18.13;;;13.00;99.90;;;;;;5037559;28;20285;-54
2023/10/10 00:52:49;;;;;;;26.03;18.27;;;12.90;99.90;;;;;;5044243;28;20225;-55
2023/10/10 00:55:21;;;;;;;27.20;18.30;;;12.90;99.90;;;;;;5071971;28;20189;-53
2023/10/10 00:57:53;;;;;;;25.80;18.57;;;12.90;99.90;;;;;;5031956;28;20206;-54
2023/10/10 01:00:25;;;;;;;24.17;17.97;;;13.00;99.90;;;;;;5041391;28;20225;-53
2023/10/10 01:02:56;;;;;;;25.90;19.90;;;12.90;99.90;;;;;;5069586;28;20228;-54
2023/10/10 01:05:39;;;;;;;27.50;18.97;;;12.90;99.90;;;;;;5038175;28;20271;-55
2023/10/10 01:08:08;;;;;;;28.33;19.77;;;12.90;99.90;;;;;;5037135;28;20270;-54
2023/10/10 01:10:43;;;;;;;26.87;20.23;;;12.80;99.90;;;;;;5038729;28;20233;-55
2023/10/10 01:13:13;;;;;;;31.23;19.93;;;12.80;99.90;;;;;;5034921;28;20284;-54
2023/10/10 01:15:56;;;;;;;27.00;19.37;;;12.80;99.90;;;;;;5037560;28;20221;-53
2023/10/10 01:18:25;;;;;;;28.07;19.40;;;12.80;99.90;;;;;;5038785;28;20694;-55
2023/10/10 01:20:56;;;;;;;31.30;20.50;;;12.70;99.90;;;;;;5034673;28;20622;-53
2023/10/10 01:23:28;;;;;;;27.80;20.00;;;12.70;99.90;;;;;;5033022;28;20233;-55
2023/10/10 01:26:05;;;;;;;28.43;21.23;;;12.80;99.90;;;;;;5031092;28;20279;-54
2023/10/10 01:28:33;;;;;;;27.87;19.40;;;12.70;99.90;;;;;;5033381;28;20288;-54
2023/10/10 01:31:05;;;;;;;29.77;20.13;;;12.70;99.90;;;;;;5066430;28;20304;-54
2023/10/10 01:33:41;;;;;;;25.57;18.70;;;12.70;99.90;;;;;;5035204;28;20294;-54
2023/10/10 01:36:19;;;;;;;25.20;18.70;;;12.70;99.90;;;;;;5034435;28;20212;-55
2023/10/10 01:39:24;;;;;;;27.07;18.37;;;12.70;99.90;;;;;;5034937;28;20217;-55
2023/10/10 01:41:53;;;;;;;24.83;18.33;;;12.60;99.90;;;;;;5027713;28;20691;-54
2023/10/10 01:44:23;;;;;;;26.70;18.77;;;12.60;99.90;;;;;;5030609;28;20226;-56
2023/10/10 01:46:52;;;;;;;28.83;19.03;;;12.60;99.90;;;;;;5032351;28;20218;-55
2023/10/10 01:49:21;;;;;;;25.47;19.17;;;12.60;99.90;;;;;;5037212;28;20181;-54
2023/10/10 01:51:55;;;;;;;27.00;18.87;;;12.60;99.90;;;;;;5035868;28;20208;-54
2023/10/10 01:54:34;;;;;;;25.13;18.47;;;12.50;99.90;;;;;;5033516;28;20243;-52
2023/10/10 01:57:07;;;;;;;24.77;18.40;;;12.50;99.90;;;;;;5031424;28;20255;-53
2023/10/10 01:59:38;;;;;;;30.93;18.67;;;12.50;99.90;;;;;;5034914;28;20217;-55
2023/10/10 02:02:11;;;;;;;25.13;17.93;;;12.50;99.90;;;;;;5032628;28;20221;-54
2023/10/10 02:04:41;;;;;;;26.27;17.53;;;12.40;99.90;;;;;;5040267;28;20586;-53
2023/10/10 02:07:22;;;;;;;24.97;16.63;;;12.40;99.90;;;;;;5032342;28;20248;-53
2023/10/10 02:10:00;;;;;;;23.33;16.67;;;12.40;99.90;;;;;;5032336;28;20571;-56
2023/10/10 02:12:33;;;;;;;24.43;16.40;;;12.40;99.90;;;;;;5037152;28;20229;-53
2023/10/10 02:15:05;;;;;;;21.07;16.53;;;12.30;99.90;;;;;;5027204;28;20298;-55
2023/10/10 02:17:39;;;;;;;22.33;16.07;;;12.30;99.90;;;;;;5033762;28;20226;-54
2023/10/10 02:20:33;;;;;;;25.00;16.13;;;12.30;99.90;;;;;;5031307;28;20219;-55
2023/10/10 02:23:22;;;;;;;28.40;16.57;;;12.30;99.90;;;;;;5034824;28;20222;-54
2023/10/10 02:25:53;;;;;;;27.40;15.50;;;12.40;99.90;;;;;;5036877;28;20213;-53
2023/10/10 02:28:30;;;;;;;25.77;15.17;;;12.50;99.90;;;;;;5029134;28;20190;-52
2023/10/10 02:31:05;;;;;;;26.53;15.40;;;12.60;99.90;;;;;;5062361;28;20673;-54
2023/10/10 02:33:37;;;;;;;26.33;15.17;;;12.60;99.90;;;;;;5035270;28;20236;-55
2023/10/10 02:36:13;;;;;;;25.47;14.97;;;12.70;99.90;;;;;;5036301;28;20217;-54
2023/10/10 02:38:55;;;;;;;21.63;14.43;;;12.70;99.90;;;;;;5044629;28;20590;-53
2023/10/10 02:41:37;;;;;;;22.97;14.07;;;12.70;99.90;;;;;;5034904;28;20236;-54
2023/10/10 02:44:09;;;;;;;21.47;14.13;;;12.70;99.90;;;;;;5033433;28;20233;-55
2023/10/10 02:46:42;;;;;;;25.37;14.20;;;12.60;99.90;;;;;;5036237;28;20635;-53
2023/10/10 02:49:22;;;;;;;23.87;13.70;;;12.60;99.90;;;;;;5029288;28;20198;-56
2023/10/10 02:51:55;;;;;;;23.70;14.20;;;12.50;99.90;;;;;;5031331;28;20260;-55
2023/10/10 02:54:33;;;;;;;23.57;14.00;;;12.60;99.90;;;;;;5066724;28;20261;-55
2023/10/10 02:59:45;;;;;;;22.07;13.13;;;12.50;99.90;;;;;;5029381;28;20217;-55
2023/10/10 03:02:18;;;;;;;19.93;13.30;;;12.50;99.90;;;;;;5037371;28;20861;-54
2023/10/10 03:05:00;;;;;;;25.80;14.27;;;12.50;99.90;;;;;;5028836;28;25164;-55
2023/10/10 03:07:28;;;;;;;20.83;13.23;;;12.50;99.90;;;;;;5038419;28;20265;-53
2023/10/10 03:12:49;;;;;;;23.33;13.77;;;12.40;99.90;;;;;;5031360;28;20244;-51
2023/10/10 03:15:28;;;;;;;22.33;13.40;;;12.30;99.90;;;;;;5038723;28;21136;-53
2023/10/10 03:18:18;;;;;;;19.40;12.77;;;12.30;99.90;;;;;;5033520;28;20264;-52
2023/10/10 03:21:12;;;;;;;22.17;13.73;;;12.30;99.90;;;;;;5037360;28;20675;-53
2023/10/10 03:26:52;;;;;;;23.47;13.67;;;12.40;99.90;;;;;;5035252;28;20233;-54
2023/10/10 03:29:36;;;;;;;24.47;14.07;;;12.40;99.90;;;;;;5032804;28;20302;-54
2023/10/10 03:32:31;;;;;;;21.87;12.87;;;12.40;99.90;;;;;;5037571;28;21577;-52
2023/10/10 03:35:20;;;;;;;26.07;14.10;;;12.40;99.90;;;;;;5037190;28;20223;-53
2023/10/10 03:37:54;;;;;;;26.80;14.23;;;12.40;99.90;;;;;;5040837;28;20316;-53
2023/10/10 03:40:26;;;;;;;25.63;14.03;;;12.40;99.90;;;;;;5033575;28;20197;-52
2023/10/10 05:25:42;;;;;;;22.17;11.93;;;12.40;99.90;;;;;;5050004;28;20216;-55
2023/10/10 05:28:10;;;;;;;19.30;12.27;;;12.40;99.90;;;;;;5055430;28;20220;-55
2023/10/10 05:30:44;;;;;;;19.43;11.67;;;12.40;99.90;;;;;;5056834;28;20263;-52
2023/10/10 05:33:13;;;;;;;20.37;12.20;;;12.40;99.90;;;;;;5058563;28;20223;-55
2023/10/10 05:35:47;;;;;;;20.33;11.70;;;12.40;99.90;;;;;;5055466;28;20235;-54
2023/10/10 05:38:19;;;;;;;27.10;12.13;;;12.40;99.90;;;;;;5051124;28;20270;-54
2023/10/10 05:40:48;;;;;;;19.43;11.53;;;12.40;99.90;;;;;;5054688;28;20748;-55
2023/10/10 05:43:17;;;;;;;20.27;11.53;;;12.40;99.90;;;;;;5057982;28;20539;-52
2023/10/10 05:45:47;;;;;;;17.00;11.30;;;12.40;99.90;;;;;;5085793;28;20192;-54
2023/10/10 05:48:15;;;;;;;22.77;11.70;;;12.40;99.90;;;;;;5058917;28;20670;-54
2023/10/10 05:50:44;;;;;;;21.00;11.80;;;12.40;99.90;;;;;;5052537;28;20236;-52
2023/10/10 05:53:12;;;;;;;21.53;10.97;;;12.40;99.90;;;;;;5049897;28;20286;-54
2023/10/10 05:55:43;;;;;;;25.33;11.57;;;12.40;99.90;;;;;;5059919;28;20253;-54
2023/10/10 05:58:12;;;;;;;20.17;11.77;;;12.40;99.90;;;;;;5053362;28;20253;-56
2023/10/10 06:00:44;;;;;;;20.43;11.53;;;12.40;99.90;;;;;;5056571;28;20244;-55
2023/10/10 06:03:13;;;;;;;21.80;11.00;;;12.50;99.90;;;;;;5081414;28;20221;-55
2023/10/10 06:05:44;;;;;;;21.47;11.20;;;12.60;99.90;;;;;;5051467;28;20219;-54
2023/10/10 06:08:13;;;;;;;18.63;11.70;;;12.50;99.90;;;;;;5053208;28;20230;-55
2023/10/10 06:10:43;;;;;;;20.87;11.00;;;12.60;99.90;;;;;;5065284;28;20227;-54
2023/10/10 06:13:12;;;;;;;20.80;11.80;;;12.50;99.90;;;;;;5057606;28;20209;-55
2023/10/10 06:15:40;;;;;;;18.43;10.70;;;12.60;99.90;;;;;;5053641;28;20227;-55
2023/10/10 06:18:12;;;;;;;17.30;11.20;;;12.60;99.90;;;;;;5056052;28;20224;-55
2023/10/10 06:20:44;;;;;;;24.13;11.93;;;12.70;99.90;;;;;;5055790;28;20213;-52
2023/10/10 06:23:15;;;;;;;20.07;10.30;;;12.80;99.90;;;;;;5047317;28;20299;-52
2023/10/10 06:25:45;;;;;;;18.03;10.93;;;12.80;99.90;;;;;;5045171;28;20232;-54
2023/10/10 06:28:25;;;;;;;20.63;11.17;;;12.80;99.90;;;;;;5049639;28;20192;-51
2023/10/10 06:30:55;;;;;;;19.00;11.27;;;12.80;99.90;;;;;;5059652;28;20833;-54
2023/10/10 06:33:28;;;;;;;24.53;11.00;;;12.70;99.90;;;;;;5050289;28;20221;-52
2023/10/10 06:36:32;;;;;;;22.27;10.50;;;12.70;99.90;;;;;;5056401;28;20220;-52
2023/10/10 06:39:18;;;;;;;21.40;11.80;;;12.80;99.90;;;;;;5049094;28;20240;-52
2023/10/10 06:41:50;;;;;;;16.87;10.83;;;12.80;99.90;;;;;;5054418;28;20220;-52
2023/10/10 06:44:33;;;;;;;20.47;12.00;;;12.80;99.90;;;;;;5051610;28;20248;-53
2023/10/10 06:47:08;;;;;;;19.03;11.57;;;12.80;99.90;;;;;;5060953;28;20221;-54
2023/10/10 06:49:46;;;;;;;19.90;11.37;;;12.90;99.90;;;;;;5053446;28;20234;-54
2023/10/10 06:52:19;;;;;;;24.10;10.90;;;12.90;99.90;;;;;;5055069;28;20200;-55
2023/10/10 06:54:53;;;;;;;17.70;10.67;;;13.00;99.90;;;;;;5059939;28;20712;-52
2023/10/10 06:57:35;;;;;;;17.47;9.90;;;13.10;99.90;;;;;;5052942;28;20217;-52
2023/10/10 07:00:21;;;;;;;17.43;10.03;;;13.20;99.90;;;;;;5053810;28;20265;-53
2023/10/10 07:02:53;;;;;;;19.17;9.90;;;13.20;99.90;;;;;;5061591;28;20278;-54
2023/10/10 07:05:27;;;;;;;19.37;10.17;;;13.40;99.90;;;;;;5055189;28;20240;-51
2023/10/10 07:07:59;;;;;;;14.30;9.50;;;13.40;99.90;;;;;;5050589;28;20690;-51
2023/10/10 07:10:35;;;;;;;15.70;10.03;;;13.50;99.90;;;;;;5054968;28;20266;-55
2023/10/10 07:13:10;;;;;;;19.90;10.10;;;13.60;99.90;;;;;;5066426;28;20193;-54
2023/10/10 07:15:39;;;;;;;18.43;9.87;;;13.70;99.90;;;;;;5058210;28;20227;-53
2023/10/10 07:18:09;;;;;;;17.07;9.20;;;13.80;99.90;;;;;;5056645;28;20298;-54
2023/10/10 07:23:36;;;;;;;19.20;10.20;;;14.00;99.90;;;;;;5052653;28;20304;-53
2023/10/10 07:26:06;;;;;;;18.23;10.40;;;14.10;99.90;;;;;;5070511;28;20278;-54
2023/10/10 07:28:47;;;;;;;14.83;9.97;;;14.10;99.90;;;;;;5064056;28;20200;-54
2023/10/10 07:31:19;;;;;;;16.00;9.83;;;14.20;99.90;;;;;;5052889;28;20679;-53
2023/10/10 07:33:55;;;;;;;15.30;9.43;;;14.50;99.90;;;;;;5055182;28;20218;-52
2023/10/10 07:36:27;;;;;;;20.43;10.27;;;14.70;99.90;;;;;;5056921;28;20306;-53
2023/10/10 07:41:44;;;;;;;15.23;10.10;;;15.00;99.90;;;;;;5056753;28;20231;-54
2023/10/10 07:44:16;;;;;;;18.97;9.73;;;15.00;99.90;;;;;;5054233;28;20629;-52
2023/10/10 07:47:18;;;;;;;17.90;9.90;;;15.00;99.90;;;;;;5060129;28;20561;-54
2023/10/10 07:49:40;;;;;;;17.57;9.90;;;15.00;99.90;;;;;;5051569;28;20676;-55
2023/10/10 07:52:16;;;;;;;19.93;10.30;;;15.10;99.90;;;;;;5054976;28;20195;-53
2023/10/10 07:54:46;;;;;;;15.30;9.50;;;15.10;99.90;;;;;;5049964;28;20641;-55
2023/10/10 07:57:18;;;;;;;20.03;11.03;;;15.20;99.90;;;;;;5058146;28;20586;-54
2023/10/10 07:59:49;;;;;;;17.27;9.83;;;15.30;99.90;;;;;;5059175;28;20222;-52
2023/10/10 08:02:31;;;;;;;17.37;9.73;;;15.30;99.90;;;;;;5061748;28;20261;-53
2023/10/10 08:05:09;;;;;;;20.03;10.27;;;15.40;99.90;;;;;;5046797;28;20620;-53
2023/10/10 08:07:38;;;;;;;17.57;9.43;;;15.50;99.90;;;;;;5056200;28;20213;-52
2023/10/10 08:10:14;;;;;;;15.50;9.27;;;15.60;99.90;;;;;;5059071;28;20225;-54
2023/10/10 08:12:43;;;;;;;14.90;9.33;;;15.60;99.90;;;;;;5061767;28;20225;-52
2023/10/10 08:15:25;;;;;;;14.30;10.10;;;15.60;99.90;;;;;;5057215;28;20214;-51
2023/10/10 08:17:55;;;;;;;16.20;10.20;;;15.60;99.90;;;;;;5059776;28;20841;-51
2023/10/10 08:20:34;;;;;;;14.43;9.20;;;15.70;99.90;;;;;;5057825;28;20287;-51
2023/10/10 08:23:04;;;;;;;15.93;9.70;;;15.80;99.90;;;;;;5058624;28;20236;-54
2023/10/10 08:25:33;;;;;;;17.07;9.80;;;15.90;99.90;;;;;;5053542;28;20541;-55
2023/10/10 08:28:02;;;;;;;15.13;9.30;;;16.00;99.90;;;;;;5058927;28;20198;-52
2023/10/10 08:30:33;;;;;;;16.10;9.70;;;16.10;99.90;;;;;;5056211;28;20216;-55
2023/10/10 08:33:02;;;;;;;16.50;9.20;;;16.40;99.90;;;;;;5054969;28;20219;-50
2023/10/10 08:35:38;;;;;;;15.87;9.30;;;16.60;99.90;;;;;;5058900;28;20243;-52
2023/10/10 08:38:08;;;;;;;18.10;9.53;;;16.70;99.90;;;;;;5058354;28;20222;-55
2023/10/10 08:40:37;;;;;;;14.03;9.20;;;16.80;99.90;;;;;;5051005;28;20231;-49
2023/10/10 08:43:09;;;;;;;15.70;9.53;;;16.80;99.90;;;;;;5059277;28;20190;-53
2023/10/10 08:45:43;;;;;;;13.00;9.30;;;16.80;99.90;;;;;;5051046;28;20223;-51
2023/10/10 08:48:16;;;;;;;16.07;8.73;;;17.00;99.90;;;;;;5055534;28;20324;-50
2023/10/10 08:50:45;;;;;;;14.63;8.10;;;17.10;99.90;;;;;;5056463;28;20223;-55
2023/10/10 08:53:15;;;;;;;13.63;9.37;;;17.10;99.90;;;;;;5062235;28;20686;-51
2023/10/10 08:55:46;;;;;;;13.37;9.30;;;17.00;99.90;;;;;;5056006;28;20983;-51
2023/10/10 08:58:18;;;;;;;19.50;9.37;;;17.00;99.90;;;;;;5055910;28;21045;-54
2023/10/10 09:00:49;;;;;;;14.73;8.73;;;17.00;99.90;;;;;;5059032;28;20227;-53
2023/10/10 09:03:18;;;;;;;16.37;8.70;;;17.10;99.90;;;;;;5054169;28;20225;-55
2023/10/10 09:05:47;;;;;;;18.43;8.73;;;17.20;99.90;;;;;;5049834;28;20229;-51
2023/10/10 09:08:16;;;;;;;12.37;8.07;;;17.40;99.90;;;;;;5055946;28;20236;-54
2023/10/10 09:10:46;;;;;;;13.07;8.53;;;17.60;99.90;;;;;;5060722;28;20228;-54
2023/10/10 09:13:16;;;;;;;13.30;8.00;;;17.80;99.90;;;;;;5064220;28;20188;-55
2023/10/10 09:15:55;;;;;;;12.53;7.57;;;17.80;99.90;;;;;;5063953;28;20216;-52
2023/10/10 09:18:25;;;;;;;13.97;8.20;;;17.90;99.90;;;;;;5053553;28;20329;-55
2023/10/10 09:21:18;;;;;;;14.87;8.50;;;18.10;99.90;;;;;;5059457;28;20221;-53
2023/10/10 09:24:07;;;;;;;15.37;8.67;;;18.30;99.90;;;;;;5060776;28;20212;-51
2023/10/10 09:26:37;;;;;;;15.57;8.17;;;18.50;99.90;;;;;;5059000;28;20678;-51
2023/10/10 09:29:15;;;;;;;12.93;7.57;;;18.60;99.90;;;;;;5065538;28;20220;-54
2023/10/10 09:31:59;;;;;;;15.93;8.03;;;18.60;99.90;;;;;;5060914;28;20239;-55
2023/10/10 09:34:35;;;;;;;16.70;8.13;;;18.80;99.90;;;;;;5090075;28;20295;-55
2023/10/10 09:37:07;;;;;;;13.07;7.90;;;18.80;99.90;;;;;;5059538;28;20555;-52
2023/10/10 09:39:37;;;;;;;11.73;7.27;;;19.00;99.90;;;;;;5054588;28;20556;-54
2023/10/10 09:42:27;;;;;;;14.77;7.63;;;19.10;99.90;;;;;;5095249;28;20212;-55
2023/10/10 09:47:55;;;;;;;13.73;7.10;;;19.40;99.90;;;;;;5056027;28;20266;-55
2023/10/10 09:50:34;;;;;;;12.03;7.13;;;19.50;99.90;;;;;;5054486;28;20311;-55
2023/10/10 09:53:19;;;;;;;11.63;7.50;;;19.40;99.90;;;;;;5063403;28;20219;-53
2023/10/10 09:55:53;;;;;;;11.93;7.17;;;19.50;99.90;;;;;;5059915;28;20227;-55
2023/10/10 09:58:28;;;;;;;10.53;6.70;;;19.60;99.90;;;;;;5057746;28;20238;-55
2023/10/10 10:01:14;;;;;;;13.03;7.40;;;19.60;99.90;;;;;;5062992;28;20611;-54
2023/10/10 10:03:59;;;;;;;11.20;6.17;;;19.80;99.90;;;;;;5060457;28;20273;-52
2023/10/10 10:06:41;;;;;;;17.97;7.30;;;19.90;99.90;;;;;;5051715;28;20217;-53
2023/10/10 10:09:45;;;;;;;10.97;7.07;;;19.90;99.90;;;;;;5056316;28;20232;-54
2023/10/10 10:12:49;;;;;;;17.60;7.00;;;20.00;99.90;;;;;;5056034;28;20216;-54
2023/10/10 10:15:38;;;;;;;9.97;6.60;;;20.00;99.90;;;;;;5056570;28;20220;-55
2023/10/10 10:18:13;;;;;;;13.33;6.90;;;20.10;99.90;;;;;;5061307;28;20251;-51
2023/10/10 10:20:47;;;;;;;15.53;7.30;;;20.20;99.90;;;;;;5058435;28;20215;-52
2023/10/10 10:23:25;;;;;;;10.63;6.37;;;20.20;99.90;;;;;;5056190;28;20220;-52
2023/10/10 10:25:55;;;;;;;10.80;6.70;;;20.20;99.90;;;;;;5057500;28;20315;-53
2023/10/10 10:28:28;;;;;;;9.80;6.33;;;20.20;99.90;;;;;;5060665;28;21054;-53
2023/10/10 10:30:58;;;;;;;10.93;6.73;;;20.40;99.90;;;;;;5062366;28;20200;-54
2023/10/10 10:33:28;;;;;;;12.33;6.53;;;20.50;99.90;;;;;;5056962;28;20220;-51
2023/10/10 10:36:14;;;;;;;12.60;6.40;;;20.80;99.90;;;;;;5060792;28;20307;-51
2023/10/10 10:41:47;;;;;;;9.70;5.93;;;21.00;99.90;;;;;;5058344;28;20654;-54
2023/10/10 10:44:29;;;;;;;8.50;5.80;;;21.20;99.90;;;;;;5059983;28;20335;-53
2023/10/10 10:46:58;;;;;;;10.33;5.97;;;21.30;99.90;;;;;;5056243;28;20247;-52
2023/10/10 10:49:28;;;;;;;7.63;5.80;;;21.40;99.90;;;;;;5051012;28;20541;-54
2023/10/10 10:55:00;;;;;;;10.43;5.70;;;21.70;99.90;;;;;;5058113;28;20240;-51
2023/10/10 10:57:36;;;;;;;9.83;5.57;;;21.70;99.90;;;;;;5072470;28;20217;-55
2023/10/10 11:00:25;;;;;;;7.73;5.43;;;21.70;99.90;;;;;;5054256;28;20683;-54
2023/10/10 11:02:59;;;;;;;13.63;5.57;;;21.80;99.90;;;;;;5054969;28;20643;-54
2023/10/10 11:05:29;;;;;;;8.87;5.50;;;21.90;99.90;;;;;;5055173;28;20225;-54
2023/10/10 11:08:11;;;;;;;8.47;5.90;;;21.90;99.90;;;;;;5053864;28;20230;-55
2023/10/10 11:10:45;;;;;;;9.53;5.03;;;22.00;99.90;;;;;;5058015;28;20313;-53
2023/10/10 11:13:14;;;;;;;9.27;5.73;;;22.10;99.90;;;;;;5062402;28;20197;-54
2023/10/10 11:15:44;;;;;;;11.27;5.07;;;22.20;99.90;;;;;;5052271;28;20638;-55
2023/10/10 11:18:13;;;;;;;9.53;5.00;;;22.20;99.90;;;;;;5046243;28;20230;-54
2023/10/10 11:21:06;;;;;;;12.07;5.03;;;22.30;99.90;;;;;;5054911;28;20217;-53
2023/10/10 11:23:42;;;;;;;6.20;4.60;;;22.50;99.90;;;;;;5052949;28;20263;-49
2023/10/10 11:26:14;;;;;;;12.10;4.70;;;22.60;99.90;;;;;;5054431;28;20217;-52
2023/10/10 11:28:47;;;;;;;7.53;5.13;;;22.60;99.90;;;;;;5056110;28;20275;-56
2023/10/10 11:31:23;;;;;;;12.53;4.87;;;22.70;99.90;;;;;;5060512;28;20273;-52
2023/10/10 11:34:10;;;;;;;11.03;5.20;;;22.70;99.90;;;;;;5059122;28;20635;-53
2023/10/10 11:36:51;;;;;;;7.40;5.10;;;22.80;99.90;;;;;;5053495;28;20226;-52
2023/10/10 11:39:34;;;;;;;6.90;4.20;;;22.90;99.90;;;;;;5057840;28;20222;-51
2023/10/10 11:42:05;;;;;;;7.83;4.83;;;23.10;99.90;;;;;;5059564;28;20230;-52
2023/10/10 11:44:34;;;;;;;6.83;4.87;;;23.20;99.90;;;;;;5053796;28;20230;-52
2023/10/10 11:47:07;;;;;;;11.27;4.60;;;23.20;99.90;;;;;;5055664;28;20219;-53
2023/10/10 11:49:37;;;;;;;11.17;4.83;;;23.20;99.90;;;;;;5070601;28;22606;-53
2023/10/10 11:52:18;;;;;;;6.60;4.57;;;23.20;99.90;;;;;;5058720;28;20195;-55
2023/10/10 11:54:48;;;;;;;12.30;4.73;;;23.10;99.90;;;;;;5020011;28;20221;-53
2023/10/10 11:57:16;;;;;;;12.70;4.70;;;23.20;99.90;;;;;;5048075;28;20291;-53
2023/10/10 11:59:46;;;;;;;7.10;4.60;;;23.30;99.90;;;;;;5056327;28;20230;-53
2023/10/10 12:02:18;;;;;;;8.20;4.67;;;23.40;99.90;;;;;;5056180;28;20734;-55
2023/10/10 12:04:47;;;;;;;7.60;4.67;;;23.60;99.90;;;;;;5074579;28;20917;-53
2023/10/10 12:07:18;;;;;;;7.30;4.70;;;23.50;99.90;;;;;;5059667;28;20202;-54
2023/10/10 12:09:51;;;;;;;8.97;4.53;;;23.60;99.90;;;;;;5078587;28;20232;-53
2023/10/10 12:12:20;;;;;;;9.83;4.27;;;23.60;99.90;;;;;;5049321;28;20689;-54
2023/10/10 12:14:50;;;;;;;7.97;4.50;;;23.60;99.90;;;;;;5052917;28;20213;-55
2023/10/10 12:17:21;;;;;;;6.87;4.73;;;23.60;99.90;;;;;;5060345;28;20235;-54
2023/10/10 12:19:49;;;;;;;12.23;4.33;;;23.70;99.90;;;;;;5056617;28;20216;-53
2023/10/10 12:22:18;;;;;;;10.87;4.17;;;23.70;99.90;;;;;;5048996;28;21359;-53
2023/10/10 12:24:48;;;;;;;6.03;3.83;;;23.70;99.90;;;;;;5054793;28;20266;-50
2023/10/10 12:27:16;;;;;;;10.53;4.80;;;23.70;99.90;;;;;;5057896;28;20214;-53
2023/10/10 12:29:47;;;;;;;6.53;4.40;;;23.80;99.90;;;;;;5057168;28;20262;-54
2023/10/10 12:32:18;;;;;;;7.40;4.30;;;23.80;99.90;;;;;;5061824;28;20535;-53
2023/10/10 12:34:48;;;;;;;9.73;4.43;;;23.70;99.90;;;;;;5055695;28;20265;-52
2023/10/10 12:37:17;;;;;;;8.70;4.33;;;23.70;99.90;;;;;;5059967;28;20261;-55
2023/10/10 12:39:46;;;;;;;6.33;4.20;;;23.50;99.90;;;;;;5058819;28;20191;-49
2023/10/10 12:42:16;;;;;;;7.90;4.30;;;23.60;99.90;;;;;;5058021;28;20231;-51
2023/10/10 12:44:47;;;;;;;7.30;3.83;;;23.80;99.90;;;;;;5063522;28;20254;-54
2023/10/10 12:47:19;;;;;;;5.10;3.93;;;23.90;99.90;;;;;;5061091;28;20222;-53
2023/10/10 12:49:48;;;;;;;4.73;3.80;;;24.10;99.90;;;;;;5061233;28;20232;-53
2023/10/10 12:52:17;;;;;;;5.57;4.07;;;24.40;99.90;;;;;;5061560;28;20188;-50
2023/10/10 12:54:57;;;;;;;11.20;4.13;;;24.50;99.90;;;;;;5062061;28;20200;-54
2023/10/10 12:57:32;;;;;;;10.43;3.93;;;24.50;99.90;;;;;;5059293;28;20293;-53
2023/10/10 13:00:23;;;;;;;6.13;3.77;;;24.60;99.90;;;;;;5059051;28;20575;-53
2023/10/10 13:02:53;;;;;;;7.97;3.83;;;24.60;99.90;;;;;;5063332;28;20627;-53
2023/10/10 13:05:27;;;;;;;8.53;4.00;;;24.60;99.90;;;;;;5060348;28;20690;-52
2023/10/10 13:07:58;;;;;;;7.23;3.93;;;24.70;99.90;;;;;;5057550;28;20296;-53
2023/10/10 13:10:30;;;;;;;4.50;3.83;;;24.70;99.90;;;;;;5058774;28;20279;-53
2023/10/10 13:13:03;;;;;;;7.97;3.87;;;24.70;99.90;;;;;;5060209;28;20221;-52
2023/10/10 13:15:46;;;;;;;5.53;3.90;;;24.80;99.90;;;;;;5061282;28;20223;-53
2023/10/10 13:18:22;;;;;;;5.10;3.70;;;24.80;99.90;;;;;;5088850;28;20540;-51
2023/10/10 13:20:51;;;;;;;7.53;3.67;;;24.90;99.90;;;;;;5064718;28;20849;-53
2023/10/10 13:23:20;;;;;;;8.70;4.30;;;25.00;99.90;;;;;;5055738;28;20219;-53
2023/10/10 13:25:49;;;;;;;6.77;3.80;;;25.10;99.90;;;;;;5062431;28;20228;-51
2023/10/10 13:28:20;;;;;;;5.00;3.50;;;25.00;99.90;;;;;;5055573;28;20193;-53
2023/10/10 13:30:50;;;;;;;8.30;3.60;;;25.00;99.90;;;;;;5054738;28;20189;-53
2023/10/10 13:33:20;;;;;;;7.67;3.57;;;25.00;99.90;;;;;;5061212;28;20303;-54
2023/10/10 13:35:50;;;;;;;6.40;3.37;;;25.00;99.90;;;;;;5056133;28;21018;-56
2023/10/10 13:38:18;;;;;;;6.97;3.33;;;25.00;99.90;;;;;;5055679;28;20374;-54
2023/10/10 13:40:50;;;;;;;6.20;3.20;;;25.00;99.90;;;;;;5063004;28;20297;-52
2023/10/10 13:43:20;;;;;;;9.30;3.97;;;25.00;99.90;;;;;;5058114;28;20200;-52
2023/10/10 13:45:50;;;;;;;7.40;3.57;;;25.20;99.90;;;;;;5056956;28;20691;-53
2023/10/10 13:48:21;;;;;;;7.67;3.10;;;25.30;99.90;;;;;;5051704;28;20233;-53
2023/10/10 13:50:51;;;;;;;6.83;3.43;;;25.30;99.90;;;;;;5059246;28;20227;-51
2023/10/10 13:53:20;;;;;;;8.03;3.30;;;25.40;99.90;;;;;;5054552;28;20216;-51
2023/10/10 13:55:50;;;;;;;4.40;3.40;;;25.50;99.90;;;;;;5054818;28;20227;-51
2023/10/10 13:58:20;;;;;;;6.00;3.60;;;25.70;99.90;;;;;;5059030;28;20215;-52
2023/10/10 14:00:55;;;;;;;6.83;2.83;;;25.80;99.90;;;;;;5060133;28;20295;-50
2023/10/10 14:03:35;;;;;;;6.57;3.30;;;25.80;99.90;;;;;;5057088;28;20303;-51
2023/10/10 14:06:08;;;;;;;6.83;3.20;;;25.70;99.90;;;;;;5060738;28;20223;-54
2023/10/10 14:08:36;;;;;;;6.53;3.40;;;25.70;99.90;;;;;;5084591;28;20248;-52
2023/10/10 14:11:05;;;;;;;10.73;3.80;;;25.70;99.90;;;;;;5056150;28;20303;-52
2023/10/10 14:13:35;;;;;;;6.10;3.30;;;25.60;99.90;;;;;;5059970;28;20713;-52
2023/10/10 14:16:06;;;;;;;6.90;3.43;;;25.50;99.90;;;;;;5061314;28;20647;-50
2023/10/10 14:18:42;;;;;;;7.03;3.30;;;25.50;99.90;;;;;;5055720;28;20654;-52
2023/10/10 14:21:12;;;;;;;6.30;3.40;;;25.60;99.90;;;;;;5050346;28;20834;-51
2023/10/10 14:23:41;;;;;;;5.97;3.40;;;25.80;99.90;;;;;;5057918;28;20224;-50
2023/10/10 14:26:18;;;;;;;4.70;3.33;;;26.00;99.90;;;;;;5051879;28;20213;-52
2023/10/10 14:28:51;;;;;;;6.97;3.40;;;26.10;99.90;;;;;;5060350;28;20342;-54
2023/10/10 14:31:21;;;;;;;5.67;3.40;;;26.30;99.90;;;;;;5058880;28;20189;-53
2023/10/10 14:33:50;;;;;;;8.43;3.40;;;26.40;99.90;;;;;;5062275;28;20193;-50
2023/10/10 14:36:19;;;;;;;3.70;3.23;;;26.50;99.90;;;;;;5061169;28;20228;-51
2023/10/10 14:38:50;;;;;;;4.37;3.37;;;26.30;99.90;;;;;;5056201;28;20228;-52
2023/10/10 14:41:21;;;;;;;5.93;3.07;;;26.10;99.90;;;;;;5053594;28;20220;-54
2023/10/10 14:43:52;;;;;;;3.30;3.00;;;26.10;99.90;;;;;;5048367;28;20228;-51
2023/10/10 14:46:27;;;;;;;5.37;3.10;;;26.30;99.90;;;;;;5053002;28;20192;-52
2023/10/10 14:49:05;;;;;;;5.53;3.40;;;26.40;99.90;;;;;;5050975;28;20203;-49
2023/10/10 14:51:35;;;;;;;5.10;3.20;;;26.30;99.90;;;;;;5053577;28;20217;-53
2023/10/10 14:54:08;;;;;;;8.97;3.57;;;26.10;99.90;;;;;;5057307;28;20215;-51
2023/10/10 14:56:38;;;;;;;5.73;3.20;;;25.90;99.90;;;;;;5053668;28;20223;-53
2023/10/10 14:59:11;;;;;;;4.90;2.93;;;25.80;99.90;;;;;;5050764;28;20232;-52
2023/10/10 15:01:39;;;;;;;5.27;3.23;;;25.80;99.90;;;;;;5052536;28;20220;-54
2023/10/10 15:04:08;;;;;;;6.00;3.60;;;25.90;99.90;;;;;;5046754;28;20193;-51
2023/10/10 15:06:39;;;;;;;8.67;3.53;;;25.80;99.90;;;;;;5056179;28;20217;-53
2023/10/10 15:09:13;;;;;;;5.87;3.47;;;25.70;99.90;;;;;;5051791;28;20588;-50
2023/10/10 15:11:44;;;;;;;10.10;3.10;;;25.50;99.90;;;;;;5050716;28;20302;-51
2023/10/10 15:14:18;;;;;;;6.13;3.40;;;25.50;99.90;;;;;;5052001;28;20227;-52
2023/10/10 15:16:47;;;;;;;9.37;3.27;;;25.70;99.90;;;;;;5052244;28;20216;-52